createdAt,value
2023-02-11T00:01:44.204Z,101661.85
2023-02-11T00:04:12.732Z,101658.24
2023-02-11T00:06:39.948Z,101665.67
2023-02-11T00:09:07.006Z,101654.23
2023-02-11T00:11:33.805Z,101654.06
2023-02-11T00:14:04.021Z,101644.38
2023-02-11T00:16:31.942Z,101636.94
2023-02-11T00:19:02.314Z,101637.09
2023-02-11T00:21:29.386Z,101637.11
2023-02-11T00:23:58.188Z,101627.47
2023-02-11T00:26:27.600Z,101625.86
2023-02-11T00:28:54.404Z,101620.90
2023-02-11T00:31:22.940Z,101622.16
2023-02-11T00:33:49.809Z,101617.45
2023-02-11T00:36:19.549Z,101609.04
2023-02-11T00:38:49.367Z,101607.31
2023-02-11T00:41:18.375Z,101599.52
2023-02-11T00:43:45.630Z,101590.51
2023-02-11T00:46:12.478Z,101577.94
2023-02-11T00:48:39.014Z,101566.79
2023-02-11T00:51:05.658Z,101555.13
2023-02-11T00:53:32.471Z,101552.55
2023-02-11T00:56:00.780Z,101536.25
2023-02-11T00:58:28.011Z,101531.20
2023-02-11T01:00:55.310Z,101522.83
2023-02-11T01:03:22.022Z,101513.85
2023-02-11T01:05:48.718Z,101517.45
2023-02-11T01:08:15.687Z,101517.34
2023-02-11T01:10:45.025Z,101513.61
2023-02-11T01:13:11.662Z,101508.36
2023-02-11T01:15:38.062Z,101500.80
2023-02-11T01:18:05.398Z,101494.76
2023-02-11T01:20:31.649Z,101482.64
2023-02-11T01:22:57.986Z,101470.38
2023-02-11T01:25:24.242Z,101458.37
2023-02-11T01:27:51.033Z,101456.50
2023-02-11T01:30:18.485Z,101438.39
2023-02-11T01:32:45.939Z,101436.07
2023-02-11T01:35:12.368Z,101434.23
2023-02-11T01:37:38.631Z,101434.10
2023-02-11T01:40:10.637Z,101441.88
2023-02-11T01:42:36.893Z,101444.02
2023-02-11T01:45:55.230Z,101458.17
2023-02-11T01:48:33.852Z,101467.85
2023-02-11T01:51:16.622Z,101469.58
2023-02-11T01:54:02.917Z,101455.36
2023-02-11T01:56:49.256Z,101450.05
2023-02-11T01:59:26.836Z,101429.50
2023-02-11T02:01:58.484Z,101421.70
2023-02-11T02:04:31.365Z,101420.83
2023-02-11T02:07:08.440Z,101416.01
2023-02-11T02:09:42.343Z,101402.38
2023-02-11T02:12:10.101Z,101397.02
2023-02-11T02:14:41.091Z,101382.52
2023-02-11T02:17:17.434Z,101373.58
2023-02-11T02:20:08.422Z,101368.02
2023-02-11T02:22:45.179Z,101365.54
2023-02-11T02:25:50.017Z,101361.36
2023-02-11T02:28:27.213Z,101362.77
2023-02-11T02:31:38.666Z,101368.08
2023-02-11T02:34:57.875Z,101364.29
2023-02-11T02:37:35.459Z,101352.98
2023-02-11T02:40:09.382Z,101340.64
2023-02-11T02:42:41.650Z,101323.10
2023-02-11T02:45:11.024Z,101322.20
2023-02-11T02:47:37.933Z,101333.73
2023-02-11T02:50:08.969Z,101337.06
2023-02-11T02:52:47.585Z,101335.20
2023-02-11T02:55:32.966Z,101323.34
2023-02-11T02:58:47.290Z,101338.14
2023-02-11T03:01:33.075Z,101331.43
2023-02-11T03:04:21.170Z,101324.66
2023-02-11T03:07:12.400Z,101315.31
2023-02-11T03:10:08.260Z,101311.39
2023-02-11T03:12:37.354Z,101316.48
2023-02-11T03:15:06.776Z,101311.79
2023-02-11T03:17:35.947Z,101302.52
2023-02-11T03:20:05.903Z,101297.26
2023-02-11T03:23:00.513Z,101295.94
2023-02-11T03:25:33.498Z,101288.58
2023-02-11T03:28:18.475Z,101290.37
2023-02-11T03:31:05.134Z,101286.34
2023-02-11T03:33:40.901Z,101278.40
2023-02-11T03:36:15.814Z,101268.23
2023-02-11T03:38:51.022Z,101259.54
2023-02-11T03:41:23.141Z,101252.04
2023-02-11T03:44:12.641Z,101245.19
2023-02-11T03:46:41.221Z,101257.43
2023-02-11T03:49:12.041Z,101259.13
2023-02-11T03:51:39.773Z,101247.37
2023-02-11T03:54:13.679Z,101250.22
2023-02-11T03:56:51.027Z,101249.82
2023-02-11T04:01:15.339Z,101225.29
2023-02-11T04:05:00.503Z,101206.28
2023-02-11T04:07:28.570Z,101197.23
2023-02-11T04:09:56.046Z,101189.01
2023-02-11T04:12:23.411Z,101182.63
2023-02-11T04:14:50.843Z,101188.09
2023-02-11T04:17:19.395Z,101183.87
2023-02-11T04:19:48.238Z,101172.70
2023-02-11T04:22:16.312Z,101182.40
2023-02-11T04:24:44.519Z,101178.34
2023-02-11T04:27:11.536Z,101172.14
2023-02-11T04:29:40.926Z,101158.05
2023-02-11T04:32:12.335Z,101154.15
2023-02-11T04:34:39.895Z,101154.79
2023-02-11T04:37:08.668Z,101152.45
2023-02-11T04:39:36.408Z,101145.39
2023-02-11T04:42:05.187Z,101129.87
2023-02-11T04:44:35.343Z,101129.46
2023-02-11T04:47:03.996Z,101112.27
2023-02-11T04:49:32.601Z,101109.08
2023-02-11T04:52:02.240Z,101099.55
2023-02-11T04:54:29.664Z,101091.69
2023-02-11T04:57:35.661Z,101091.48
2023-02-11T05:00:05.890Z,101086.13
2023-02-11T05:02:34.956Z,101084.19
2023-02-11T05:05:01.825Z,101086.80
2023-02-11T05:07:28.340Z,101091.13
